Time;durP1;ratioP1;P1;durP2;ratioP2;P2;SDS_P1;SDS_P2;PMS_P1;PMS_P2;Temp;Humidity;BMP_temperature;BMP_pressure;BME280_temperature;BME280_humidity;BME280_pressure;Samples;Min_cycle;Max_cycle;Signal;HPM_P1;HPM_P2
2022/11/15 00:00:54;;;;;;;;;4.25;4.25;;;;;12.02;77.76;100767.19;5060183;28;45713;-86
2022/11/15 00:03:22;;;;;;;;;6.00;3.75;;;;;11.98;77.76;100763.84;5060224;28;45363;-87
2022/11/15 00:05:47;;;;;;;;;8.00;4.25;;;;;11.96;78.32;100755.22;5059962;28;45335;-87
2022/11/15 00:08:13;;;;;;;;;3.50;3.50;;;;;11.93;77.88;100772.72;5042175;28;67015;-87
2022/11/15 00:10:38;;;;;;;;;6.00;3.25;;;;;11.89;78.56;100766.72;5059805;28;45383;-87
2022/11/15 00:13:06;;;;;;;;;6.75;4.25;;;;;11.87;78.19;100757.22;5059848;27;45266;-87
2022/11/15 00:15:33;;;;;;;;;7.00;3.25;;;;;11.82;78.08;100757.41;5078095;27;45369;-87
2022/11/15 00:17:58;;;;;;;;;10.75;6.25;;;;;11.78;78.50;100754.03;5060002;28;46279;-87
2022/11/15 00:20:24;;;;;;;;;8.00;6.00;;;;;11.76;78.36;100748.03;5059058;28;65267;-87
2022/11/15 00:22:52;;;;;;;;;6.50;6.00;;;;;11.76;78.05;100752.41;5043133;28;45521;-87
2022/11/15 00:25:17;;;;;;;;;4.75;3.00;;;;;11.69;78.02;100748.28;5077902;28;45162;-87
2022/11/15 00:27:42;;;;;;;;;6.50;4.50;;;;;11.62;78.10;100748.47;5059000;27;62314;-87
2022/11/15 00:30:08;;;;;;;;;5.50;3.00;;;;;11.58;78.32;100743.41;5059396;28;49367;-87
2022/11/15 00:32:33;;;;;;;;;13.00;5.25;;;;;11.56;78.26;100748.69;5059134;28;45408;-87
2022/11/15 00:35:06;;;;;;;;;4.50;3.00;;;;;11.54;77.96;100744.44;5077803;27;45232;-87
2022/11/15 00:37:31;;;;;;;;;6.50;4.25;;;;;11.55;78.14;100743.50;5059163;28;46287;-86
2022/11/15 00:39:57;;;;;;;;;6.00;5.00;;;;;11.54;78.17;100729.63;5057802;28;69353;-87
2022/11/15 00:42:22;;;;;;;;;5.75;2.25;;;;;11.53;78.16;100732.28;5041728;28;64174;-87
2022/11/15 00:44:47;;;;;;;;;5.00;5.00;;;;;11.47;78.24;100735.09;5077064;27;58568;-87
2022/11/15 00:47:13;;;;;;;;;7.00;3.00;;;;;11.43;78.04;100726.53;5058863;28;60635;-87
2022/11/15 00:49:40;;;;;;;;;5.75;3.00;;;;;11.41;78.16;100725.72;5058847;28;62342;-87
2022/11/15 00:52:06;;;;;;;;;6.25;3.75;;;;;11.35;77.58;100726.78;5059662;28;45430;-87
2022/11/15 00:54:31;;;;;;;;;4.00;3.00;;;;;11.34;77.60;100724.22;5041835;28;49801;-87
2022/11/15 00:56:56;;;;;;;;;5.00;2.00;;;;;11.31;77.88;100724.31;5059070;28;46410;-86
2022/11/15 00:59:22;;;;;;;;;2.00;2.00;;;;;11.28;77.78;100719.22;5058841;28;64629;-87
2022/11/15 01:01:47;;;;;;;;;2.25;1.50;;;;;11.25;77.81;100717.53;5077191;27;51453;-87
2022/11/15 01:04:13;;;;;;;;;5.75;2.00;;;;;11.19;77.49;100717.75;5076551;27;60438;-87
2022/11/15 01:06:39;;;;;;;;;7.00;3.00;;;;;11.17;77.45;100714.34;5059069;28;47255;-87
2022/11/15 01:09:04;;;;;;;;;1.75;1.00;;;;;11.14;77.50;100711.81;5057497;28;61716;-87
2022/11/15 01:11:29;;;;;;;;;3.25;2.00;;;;;11.16;77.17;100715.22;5041807;28;58019;-87
2022/11/15 01:13:55;;;;;;;;;4.50;1.75;;;;;11.17;77.28;100709.13;5077219;28;45528;-87
2022/11/15 01:16:20;;;;;;;;;0.00;0.00;;;;;11.14;76.65;100699.66;5076441;27;65899;-87
2022/11/15 01:18:45;;;;;;;;;2.00;2.00;;;;;11.13;76.92;100705.78;5041966;28;45825;-87
2022/11/15 01:21:16;;;;;;;;;1.00;1.00;;;;;11.14;76.75;100698.81;5042325;27;45440;-87
2022/11/15 01:23:42;;;;;;;;;5.25;1.00;;;;;11.12;76.88;100696.25;5041728;27;45297;-87
2022/11/15 01:26:10;;;;;;;;;1.25;1.25;;;;;11.14;77.01;100694.44;5058813;28;48366;-87
2022/11/15 01:28:40;;;;;;;;;3.25;1.50;;;;;11.18;77.05;100685.66;5076745;28;45690;-87
2022/11/15 01:31:09;;;;;;;;;1.00;1.00;;;;;11.17;77.12;100691.75;5058738;28;45410;-87
2022/11/15 01:33:36;;;;;;;;;3.00;1.00;;;;;11.16;77.08;100689.19;5042102;27;45352;-87
2022/11/15 01:36:16;;;;;;;;;1.00;1.00;;;;;11.11;76.78;100678.91;5058862;28;46308;-87
2022/11/15 01:38:41;;;;;;;;;5.00;1.00;;;;;11.11;76.61;100683.28;5075447;27;45427;-87
2022/11/15 01:41:15;;;;;;;;;2.00;1.50;;;;;11.09;76.72;100677.25;5058375;27;45273;-88
2022/11/15 01:43:40;;;;;;;;;1.00;1.00;;;;;11.06;76.79;100665.19;5041710;28;45471;-87
2022/11/15 01:46:33;;;;;;;;;1.00;1.00;;;;;11.04;76.80;100665.22;5057728;28;65232;-87
2022/11/15 01:49:05;;;;;;;;;2.00;1.25;;;;;10.95;76.77;100662.91;5076822;28;45892;-87
2022/11/15 01:51:35;;;;;;;;;5.00;1.75;;;;;10.92;77.04;100654.34;5058619;28;45407;-87
2022/11/15 01:54:06;;;;;;;;;2.00;1.00;;;;;10.88;76.70;100653.59;5041770;28;45439;-87
2022/11/15 01:56:33;;;;;;;;;2.75;2.00;;;;;10.82;76.60;100648.59;5058398;28;45556;-87
2022/11/15 01:59:01;;;;;;;;;5.00;1.00;;;;;10.77;76.97;100638.31;5058424;28;45763;-87
2022/11/15 02:01:28;;;;;;;;;2.50;1.00;;;;;10.73;77.17;100639.28;5058588;28;45538;-87
2022/11/15 02:04:02;;;;;;;;;1.00;1.00;;;;;10.68;77.29;100640.34;5041227;28;59911;-87
2022/11/15 02:06:27;;;;;;;;;1.75;1.75;;;;;10.65;76.81;100628.28;5040942;28;46392;-87
2022/11/15 02:08:53;;;;;;;;;1.00;1.00;;;;;10.64;76.88;100626.56;5058171;28;45451;-87
2022/11/15 02:11:18;;;;;;;;;2.25;2.25;;;;;10.60;76.83;100622.34;5057785;27;58998;-87
2022/11/15 02:13:44;;;;;;;;;2.50;2.00;;;;;10.55;77.14;100626.84;5058149;27;45546;-87
2022/11/15 02:16:19;;;;;;;;;2.25;1.75;;;;;10.53;77.21;100623.44;5057988;28;51450;-86
2022/11/15 02:18:50;;;;;;;;;2.00;0.00;;;;;10.50;76.70;100616.59;5075981;27;45466;-87
2022/11/15 02:21:18;;;;;;;;;1.00;1.00;;;;;10.45;76.96;100615.88;5043451;27;45497;-87
2022/11/15 02:24:33;;;;;;;;;2.50;0.00;;;;;10.40;77.07;100615.16;5061820;28;45306;-87
2022/11/15 02:27:17;;;;;;;;;2.00;1.00;;;;;10.40;77.23;100604.75;5061592;27;47500;-87
2022/11/15 02:29:45;;;;;;;;;1.00;0.00;;;;;10.38;76.82;100596.13;5061699;28;45682;-87
2022/11/15 02:32:19;;;;;;;;;2.00;1.00;;;;;10.35;77.04;100598.84;5079626;27;45474;-87
2022/11/15 02:35:01;;;;;;;;;6.00;1.00;;;;;10.33;76.77;100590.25;5061546;28;45362;-87
2022/11/15 02:37:48;;;;;;;;;1.00;1.00;;;;;10.32;77.22;100588.53;5060890;28;48289;-87
2022/11/15 02:40:42;;;;;;;;;3.00;2.00;;;;;10.34;76.78;100589.34;5079340;27;45491;-87
2022/11/15 02:46:08;;;;;;;;;5.00;1.00;;;;;10.25;76.99;100575.69;5079623;27;45395;-87
2022/11/15 02:48:34;;;;;;;;;2.00;1.75;;;;;10.21;76.96;100576.66;5061351;28;45419;-86
2022/11/15 02:50:59;;;;;;;;;2.50;1.00;;;;;10.20;77.29;100572.38;5060872;27;45347;-86
2022/11/15 02:53:25;;;;;;;;;2.75;1.00;;;;;10.17;76.80;100571.59;5061259;28;45689;-88
2022/11/15 02:55:53;;;;;;;;;5.50;2.75;;;;;10.19;77.29;100559.41;5061298;28;45518;-87
2022/11/15 02:58:39;;;;;;;;;3.00;1.50;;;;;10.19;77.15;100551.59;5061356;28;46014;-87
2022/11/15 03:01:25;;;;;;;;;1.00;1.00;;;;;10.18;76.88;100555.09;5046584;28;45472;-87
2022/11/15 03:03:57;;;;;;;;;1.25;1.25;;;;;10.20;77.08;100545.50;5079325;27;45321;-86
2022/11/15 03:06:28;;;;;;;;;2.50;2.00;;;;;10.19;76.69;100539.44;5079342;28;45530;-86
2022/11/15 03:09:03;;;;;;;;;0.75;0.75;;;;;10.17;77.38;100541.22;5079038;28;47435;-87
2022/11/15 03:11:32;;;;;;;;;8.50;2.50;;;;;10.16;77.11;100536.94;5078938;27;45743;-87
2022/11/15 03:14:16;;;;;;;;;2.00;1.00;;;;;10.20;77.47;100532.50;5060821;28;45652;-87
2022/11/15 03:17:14;;;;;;;;;3.00;1.50;;;;;10.22;77.61;100530.69;5060881;28;45483;-87
2022/11/15 03:19:57;;;;;;;;;2.50;1.00;;;;;10.19;76.79;100526.41;5048349;28;45428;-87
2022/11/15 03:22:25;;;;;;;;;5.00;2.25;;;;;10.19;76.72;100521.22;5077637;27;45823;-87
2022/11/15 03:24:54;;;;;;;;;3.00;1.00;;;;;10.20;76.66;100528.13;5060822;28;45386;-87
2022/11/15 03:27:22;;;;;;;;;2.00;2.00;;;;;10.24;77.06;100523.69;5060703;28;45546;-87
2022/11/15 03:29:53;;;;;;;;;2.00;2.00;;;;;10.23;76.86;100525.44;5060576;28;46634;-87
2022/11/15 03:32:25;;;;;;;;;3.00;3.00;;;;;10.23;76.93;100525.44;5043586;28;45826;-86
2022/11/15 03:34:58;;;;;;;;;2.00;2.00;;;;;10.22;76.95;100525.50;5060539;28;45389;-87
2022/11/15 03:37:34;;;;;;;;;4.00;1.75;;;;;10.20;76.95;100520.34;5077341;28;45347;-87
2022/11/15 03:40:00;;;;;;;;;1.00;1.00;;;;;10.15;76.62;100510.97;5056299;28;45494;-87
2022/11/15 03:42:29;;;;;;;;;2.75;2.25;;;;;10.13;76.99;100513.63;5060271;28;45264;-87
2022/11/15 03:45:18;;;;;;;;;1.75;1.25;;;;;10.10;76.90;100518.06;5078670;27;45344;-87
2022/11/15 03:47:56;;;;;;;;;2.00;1.00;;;;;10.08;76.85;100515.50;5060118;28;45300;-87
2022/11/15 03:50:22;;;;;;;;;2.00;1.00;;;;;10.06;77.25;100514.69;5043688;27;47116;-87
2022/11/15 03:52:48;;;;;;;;;5.00;2.00;;;;;10.03;76.31;100504.41;5060282;28;45450;-87
2022/11/15 03:55:18;;;;;;;;;2.25;2.00;;;;;10.04;76.85;100512.13;5043449;28;45434;-87
2022/11/15 03:57:44;;;;;;;;;3.00;2.00;;;;;10.03;76.52;100507.84;5078282;27;45371;-87
2022/11/15 04:00:10;;;;;;;;;3.00;2.00;;;;;10.01;77.18;100503.56;5078215;27;47381;-87
2022/11/15 04:02:36;;;;;;;;;4.25;2.00;;;;;9.98;76.79;100499.34;5077960;27;45255;-87
2022/11/15 04:05:01;;;;;;;;;6.00;1.00;;;;;9.99;76.51;100500.16;5043033;28;47480;-86
2022/11/15 04:07:27;;;;;;;;;2.25;1.50;;;;;9.95;76.65;100494.22;5060158;28;45485;-86
2022/11/15 04:10:05;;;;;;;;;1.75;1.00;;;;;9.93;76.75;100489.97;5059881;28;45603;-86
2022/11/15 04:12:32;;;;;;;;;2.00;1.00;;;;;9.91;76.71;100491.75;5061626;27;45666;-87
2022/11/15 04:15:10;;;;;;;;;1.50;1.50;;;;;9.87;76.56;100486.66;5043406;28;45336;-87
2022/11/15 04:17:41;;;;;;;;;2.25;2.00;;;;;9.87;77.43;100489.25;5059690;28;45368;-87
2022/11/15 04:25:43;;;;;;;;;2.00;2.00;;;;;9.80;77.18;100484.28;5078070;28;45525;-87
2022/11/15 04:28:10;;;;;;;;;0.50;0.00;;;;;9.80;77.24;100481.69;5059820;28;45238;-86
2022/11/15 04:30:36;;;;;;;;;1.00;1.00;;;;;9.79;77.03;100482.59;5077658;27;46140;-86
2022/11/15 04:33:01;;;;;;;;;10.25;2.00;;;;;9.78;77.39;100478.28;5077277;27;45420;-87
2022/11/15 04:35:27;;;;;;;;;4.00;1.25;;;;;9.78;77.57;100476.53;5059920;28;45577;-86
2022/11/15 04:37:53;;;;;;;;;1.00;1.00;;;;;9.82;77.34;100474.69;5056109;28;45617;-87
2022/11/15 04:40:19;;;;;;;;;1.75;1.00;;;;;9.84;77.59;100471.16;5050956;28;46651;-87
2022/11/15 04:42:44;;;;;;;;;1.00;1.00;;;;;9.86;77.34;100458.97;5018792;28;45369;-87
2022/11/15 04:45:10;;;;;;;;;2.00;1.25;;;;;9.86;77.14;100455.50;5036016;28;45432;-87
2022/11/15 04:47:35;;;;;;;;;2.00;1.25;;;;;9.85;77.63;100448.59;5052518;28;45424;-87
2022/11/15 04:50:01;;;;;;;;;2.50;1.00;;;;;9.84;77.66;100455.56;5035973;28;45381;-87
2022/11/15 04:52:26;;;;;;;;;2.00;1.00;;;;;9.82;77.73;100446.09;5051937;28;62368;-87
2022/11/15 04:54:51;;;;;;;;;2.50;1.00;;;;;9.80;77.35;100443.53;5036752;28;49279;-87
2022/11/15 04:57:17;;;;;;;;;2.25;1.25;;;;;9.80;77.23;100434.91;5035890;28;46179;-86
2022/11/15 04:59:42;;;;;;;;;1.75;1.75;;;;;9.77;77.46;100433.25;5018900;28;53552;-86
2022/11/15 05:02:07;;;;;;;;;1.00;1.00;;;;;9.76;77.66;100422.91;5018787;28;45524;-87
2022/11/15 05:04:33;;;;;;;;;1.25;1.25;;;;;9.74;77.54;100417.72;5035778;28;45953;-87
2022/11/15 05:06:58;;;;;;;;;4.50;2.25;;;;;9.73;77.58;100421.22;5035201;28;55813;-86
2022/11/15 05:09:24;;;;;;;;;3.50;2.00;;;;;9.72;78.04;100426.50;5018281;28;65947;-87
2022/11/15 05:11:49;;;;;;;;;0.00;0.00;;;;;9.70;77.99;100434.31;5036822;28;45314;-87
2022/11/15 05:14:15;;;;;;;;;1.75;1.75;;;;;9.67;78.27;100424.84;5036857;28;45273;-87
2022/11/15 05:16:40;;;;;;;;;1.50;1.50;;;;;9.67;78.49;100424.00;5035269;28;45402;-87
2022/11/15 05:19:06;;;;;;;;;4.00;2.25;;;;;9.66;78.21;100423.16;5043315;28;45836;-87
2022/11/15 05:21:32;;;;;;;;;3.00;1.00;;;;;9.66;78.62;100417.97;5056101;28;59338;-87
2022/11/15 05:23:57;;;;;;;;;4.50;2.50;;;;;9.71;78.59;100427.38;5055746;28;45510;-87
2022/11/15 05:26:23;;;;;;;;;2.75;2.00;;;;;9.73;78.66;100420.38;5055581;28;45370;-87
2022/11/15 05:28:54;;;;;;;;;2.00;1.00;;;;;9.73;78.70;100429.00;5056476;28;47130;-87
2022/11/15 05:31:19;;;;;;;;;2.25;2.25;;;;;9.75;78.84;100421.19;5055445;28;45365;-87
2022/11/15 05:33:44;;;;;;;;;2.25;1.50;;;;;9.77;79.17;100421.97;5055358;28;45390;-87
2022/11/15 05:36:28;;;;;;;;;6.75;2.00;;;;;9.77;78.88;100425.44;5055645;28;45405;-86
2022/11/15 05:38:54;;;;;;;;;0.00;0.00;;;;;9.80;79.08;100425.34;5070115;27;46261;-87
2022/11/15 05:41:26;;;;;;;;;2.50;1.00;;;;;9.84;79.78;100431.28;5058495;28;45407;-87
2022/11/15 05:43:53;;;;;;;;;2.75;2.00;;;;;9.86;79.07;100426.91;5058245;28;45530;-87
2022/11/15 05:46:19;;;;;;;;;1.50;1.25;;;;;9.89;79.37;100425.06;5058187;28;54022;-86
2022/11/15 05:48:48;;;;;;;;;2.50;2.00;;;;;9.91;79.55;100414.63;5076622;28;45497;-86
2022/11/15 05:51:15;;;;;;;;;5.25;3.50;;;;;9.94;79.42;100409.31;5058388;28;45339;-87
2022/11/15 05:53:40;;;;;;;;;3.00;2.00;;;;;9.94;79.32;100406.72;5058604;28;45351;-86
2022/11/15 05:56:06;;;;;;;;;4.50;2.25;;;;;9.96;79.57;100397.13;5075054;28;48878;-86
2022/11/15 05:58:36;;;;;;;;;2.00;2.00;;;;;9.97;79.76;100401.41;5057770;27;48109;-86
2022/11/15 06:01:01;;;;;;;;;6.25;5.00;;;;;9.98;79.24;100395.31;5058214;28;45375;-86
2022/11/15 06:03:26;;;;;;;;;5.00;3.00;;;;;9.99;79.74;100396.16;5058371;28;45489;-86
2022/11/15 06:05:52;;;;;;;;;5.00;2.75;;;;;10.03;79.17;100387.38;5074632;27;62352;-87
2022/11/15 06:08:17;;;;;;;;;3.00;2.50;;;;;10.03;79.43;100384.78;5057961;28;45505;-87
2022/11/15 06:10:42;;;;;;;;;6.00;5.00;;;;;10.05;79.50;100388.19;5075969;27;46899;-87
2022/11/15 06:13:08;;;;;;;;;2.25;2.25;;;;;10.07;79.41;100375.97;5075572;27;54444;-86
2022/11/15 06:15:34;;;;;;;;;4.50;2.00;;;;;10.10;79.48;100372.41;5058263;28;45732;-87
2022/11/15 06:17:59;;;;;;;;;3.00;2.00;;;;;10.10;79.51;100368.06;5041395;28;47052;-86
2022/11/15 06:20:29;;;;;;;;;6.00;4.00;;;;;10.10;79.46;100362.00;5041123;28;45346;-87
2022/11/15 06:22:59;;;;;;;;;6.00;5.00;;;;;10.12;79.83;100355.00;5057935;28;45356;-86
2022/11/15 06:25:24;;;;;;;;;9.50;5.00;;;;;10.12;79.83;100358.44;5076203;27;45297;-86
2022/11/15 06:27:54;;;;;;;;;10.75;3.00;;;;;10.11;79.64;100356.78;5057567;28;45420;-86
2022/11/15 06:30:20;;;;;;;;;3.75;2.50;;;;;10.12;80.01;100349.81;5058078;28;45883;-86
2022/11/15 06:32:45;;;;;;;;;7.00;2.75;;;;;10.14;79.73;100345.41;5057825;28;45430;-84
2022/11/15 06:35:11;;;;;;;;;9.00;3.50;;;;;10.12;79.57;100337.66;5076232;28;45455;-86
2022/11/15 06:37:36;;;;;;;;;5.00;5.00;;;;;10.12;79.93;100329.84;5075770;28;46298;-86
2022/11/15 06:40:01;;;;;;;;;4.00;2.75;;;;;10.14;80.08;100322.00;5056741;28;69826;-87
2022/11/15 06:42:27;;;;;;;;;5.25;5.00;;;;;10.16;79.59;100320.19;5075603;28;45385;-86
2022/11/15 06:44:52;;;;;;;;;3.00;3.00;;;;;10.19;79.80;100317.50;5057679;28;45439;-86
2022/11/15 06:47:17;;;;;;;;;6.50;5.00;;;;;10.19;79.77;100323.53;5075896;27;45358;-87
2022/11/15 06:49:43;;;;;;;;;10.75;5.00;;;;;10.19;79.32;100307.94;5057383;28;58739;-87
2022/11/15 06:52:08;;;;;;;;;4.50;3.00;;;;;10.19;79.57;100307.09;5075829;28;50931;-87
2022/11/15 06:54:33;;;;;;;;;4.50;4.50;;;;;10.18;79.66;100308.84;5074054;28;55866;-87
2022/11/15 06:56:59;;;;;;;;;6.75;5.00;;;;;10.20;79.29;100307.03;5073907;28;64617;-86
2022/11/15 06:59:24;;;;;;;;;6.75;5.00;;;;;10.20;79.76;100295.81;5057069;28;62322;-85
2022/11/15 07:01:49;;;;;;;;;5.75;2.25;;;;;10.24;79.68;100282.63;5056833;28;57829;-86
2022/11/15 07:04:17;;;;;;;;;5.25;3.00;;;;;10.26;79.36;100282.56;5074719;28;45467;-86
2022/11/15 07:06:46;;;;;;;;;5.25;2.00;;;;;10.27;79.40;100292.94;5059270;28;46191;-84
2022/11/15 07:09:12;;;;;;;;;6.75;4.50;;;;;10.28;79.39;100292.00;5060873;28;45784;-84
2022/11/15 07:11:37;;;;;;;;;5.50;3.00;;;;;10.31;79.66;100285.91;5078143;27;53785;-86
2022/11/15 07:14:02;;;;;;;;;3.00;3.00;;;;;10.35;79.23;100310.06;5076636;27;69094;-85
2022/11/15 07:16:28;;;;;;;;;6.50;5.00;;;;;10.36;79.73;100301.34;5077033;28;63543;-85
2022/11/15 07:18:53;;;;;;;;;3.50;3.00;;;;;10.37;79.48;100301.28;5076996;27;57865;-85
2022/11/15 07:21:18;;;;;;;;;4.00;2.00;;;;;10.40;79.15;100300.31;5078923;27;45447;-85
2022/11/15 07:23:44;;;;;;;;;2.00;2.00;;;;;10.44;79.50;100310.59;5059759;28;64034;-85
2022/11/15 07:26:09;;;;;;;;;8.25;2.50;;;;;10.45;79.39;100307.06;5059340;28;74449;-85
2022/11/15 07:28:35;;;;;;;;;5.75;2.00;;;;;10.46;79.62;100300.97;5060538;28;45679;-85
2022/11/15 07:31:05;;;;;;;;;12.50;3.00;;;;;10.51;79.46;100295.63;5043684;27;45298;-85
2022/11/15 07:33:30;;;;;;;;;4.00;4.00;;;;;10.52;79.92;100296.47;5060782;28;45430;-87
2022/11/15 07:36:01;;;;;;;;;4.00;4.00;;;;;10.56;79.47;100287.63;5078449;28;46561;-85
2022/11/15 07:38:26;;;;;;;;;6.25;2.25;;;;;10.59;79.56;100287.53;5078352;28;45403;-86
2022/11/15 07:40:57;;;;;;;;;4.00;2.00;;;;;10.60;79.42;100271.81;5076912;28;45365;-85
2022/11/15 07:43:22;;;;;;;;;6.50;2.00;;;;;10.65;79.18;100264.72;5078548;27;45451;-84
2022/11/15 07:45:47;;;;;;;;;3.00;2.00;;;;;10.69;79.41;100273.25;5059628;28;61776;-85
2022/11/15 07:48:13;;;;;;;;;2.75;2.75;;;;;10.72;78.97;100267.09;5060195;28;45378;-85
2022/11/15 07:50:42;;;;;;;;;8.50;4.00;;;;;10.73;79.58;100245.34;5059753;28;57743;-85
2022/11/15 07:53:08;;;;;;;;;7.25;3.00;;;;;10.75;79.50;100240.94;5078281;27;45442;-85
2022/11/15 07:55:33;;;;;;;;;2.25;2.25;;;;;10.79;78.97;100243.38;5059657;28;45567;-85
2022/11/15 07:58:03;;;;;;;;;8.00;5.00;;;;;10.80;78.93;100237.25;5059994;28;45419;-85
2022/11/15 08:00:29;;;;;;;;;6.50;2.25;;;;;10.84;79.21;100238.00;5060257;27;45422;-85
2022/11/15 08:03:02;;;;;;;;;3.50;1.50;;;;;10.88;79.29;100241.31;5059027;28;45645;-85
2022/11/15 08:05:27;;;;;;;;;5.50;4.00;;;;;10.93;78.95;100237.63;5058848;28;46706;-84
2022/11/15 08:07:55;;;;;;;;;1.25;1.25;;;;;10.97;79.24;100235.78;5077159;28;51528;-84
2022/11/15 08:10:21;;;;;;;;;3.00;2.00;;;;;11.00;78.95;100239.09;5078112;28;45344;-85
2022/11/15 08:12:46;;;;;;;;;3.50;3.00;;;;;11.03;78.67;100244.22;5076862;27;45419;-86
2022/11/15 08:15:11;;;;;;;;;3.50;2.00;;;;;11.07;78.57;100238.84;5053679;28;53076;-85
2022/11/15 08:17:37;;;;;;;;;5.00;3.00;;;;;11.14;78.50;100253.34;5076736;28;45432;-85
2022/11/15 08:20:03;;;;;;;;;6.50;3.00;;;;;11.18;78.50;100250.56;5071152;28;65138;-88
2022/11/15 08:22:28;;;;;;;;;4.00;3.00;;;;;11.23;78.57;100246.00;5059612;28;45289;-87
2022/11/15 08:24:54;;;;;;;;;2.00;2.00;;;;;11.29;78.07;100241.47;5043531;28;47150;-88
2022/11/15 08:27:22;;;;;;;;;5.25;1.50;;;;;11.32;78.27;100244.81;5042336;28;59672;-87
2022/11/15 08:29:48;;;;;;;;;3.00;3.00;;;;;11.37;77.98;100236.81;5078375;27;45336;-87
2022/11/15 08:32:14;;;;;;;;;2.25;2.00;;;;;11.43;77.77;100228.75;5059811;28;45445;-87
2022/11/15 08:34:39;;;;;;;;;5.25;3.00;;;;;11.47;77.95;100216.44;5076818;28;46315;-88
2022/11/15 08:37:05;;;;;;;;;4.25;3.00;;;;;11.51;77.22;100218.84;5059555;28;45458;-87
2022/11/15 08:39:30;;;;;;;;;2.00;2.00;;;;;11.53;77.51;100222.22;5076667;28;45531;-87
2022/11/15 08:41:56;;;;;;;;;3.00;2.25;;;;;11.56;77.32;100216.91;5058214;28;45471;-87
2022/11/15 08:44:23;;;;;;;;;7.00;2.75;;;;;11.59;77.11;100214.19;5058190;27;55581;-87
2022/11/15 08:46:49;;;;;;;;;6.00;3.00;;;;;11.68;76.91;100210.34;5076748;28;45559;-88
2022/11/15 08:49:16;;;;;;;;;5.50;3.25;;;;;11.71;76.97;100211.97;5042780;28;45463;-87
2022/11/15 08:51:42;;;;;;;;;3.00;3.00;;;;;11.74;76.60;100204.88;5052949;28;45500;-88
2022/11/15 08:54:10;;;;;;;;;3.00;3.00;;;;;11.83;76.72;100190.59;5058730;28;48508;-87
2022/11/15 08:56:35;;;;;;;;;4.50;2.75;;;;;11.87;76.16;100197.38;5060266;28;45699;-87
2022/11/15 08:59:00;;;;;;;;;2.50;2.00;;;;;11.92;76.03;100184.16;5076754;28;45335;-87
2022/11/15 09:01:28;;;;;;;;;3.25;2.00;;;;;11.93;75.65;100184.09;5059935;28;45558;-87
2022/11/15 09:03:54;;;;;;;;;6.25;2.00;;;;;11.94;75.50;100175.38;5058743;27;71068;-86
2022/11/15 09:06:19;;;;;;;;;2.00;2.00;;;;;11.99;75.57;100169.94;5076722;28;45455;-87
2022/11/15 09:08:45;;;;;;;;;3.50;2.00;;;;;12.01;75.72;100179.38;5075978;28;63364;-87
2022/11/15 09:11:10;;;;;;;;;3.00;3.00;;;;;12.05;75.47;100167.03;5077664;28;45436;-87
2022/11/15 09:13:36;;;;;;;;;3.00;1.00;;;;;12.08;75.60;100176.50;5059596;28;47140;-87
2022/11/15 09:16:03;;;;;;;;;3.25;2.75;;;;;12.10;74.89;100175.53;5059488;28;45419;-87
2022/11/15 09:18:28;;;;;;;;;2.75;2.00;;;;;12.10;75.27;100170.31;5059465;27;45519;-87
2022/11/15 09:20:58;;;;;;;;;2.25;2.25;;;;;12.11;75.41;100177.22;5059173;28;45427;-87
2022/11/15 09:23:24;;;;;;;;;4.25;2.00;;;;;12.14;75.44;100176.22;5077396;28;46042;-86
2022/11/15 09:25:49;;;;;;;;;1.00;1.00;;;;;12.14;75.51;100176.22;5076279;28;45337;-88
2022/11/15 09:28:15;;;;;;;;;2.00;2.00;;;;;12.13;74.74;100177.16;5042365;28;45398;-87
2022/11/15 09:30:40;;;;;;;;;2.50;2.00;;;;;12.17;75.13;100173.50;5076235;27;63395;-87
2022/11/15 09:33:07;;;;;;;;;3.00;2.75;;;;;12.20;74.94;100168.13;5058157;28;60917;-87
2022/11/15 09:35:33;;;;;;;;;1.00;1.00;;;;;12.21;75.22;100169.84;5077008;28;45288;-87
2022/11/15 09:38:01;;;;;;;;;3.25;1.50;;;;;12.23;74.89;100175.81;5076675;28;50834;-88
2022/11/15 09:40:29;;;;;;;;;4.00;2.50;;;;;12.24;75.06;100179.28;5077000;28;45457;-87
2022/11/15 09:43:02;;;;;;;;;6.75;1.25;;;;;12.24;74.60;100167.09;5059039;28;45557;-87
2022/11/15 09:45:35;;;;;;;;;2.75;2.00;;;;;12.25;74.60;100163.56;5075700;27;46008;-87
2022/11/15 09:48:14;;;;;;;;;7.00;1.50;;;;;12.29;74.40;100170.31;5058880;28;45260;-87
2022/11/15 09:50:46;;;;;;;;;3.25;2.50;;;;;12.29;74.41;100169.47;5058200;28;45633;-87
2022/11/15 09:53:20;;;;;;;;;1.00;1.00;;;;;12.30;75.41;100171.19;5041923;28;47161;-87
2022/11/15 09:56:00;;;;;;;;;2.25;2.25;;;;;12.30;75.60;100168.59;5042006;28;45529;-86
2022/11/15 09:58:47;;;;;;;;;5.75;2.00;;;;;12.34;75.61;100168.34;5058520;28;45668;-86
2022/11/15 10:01:56;;;;;;;;;5.75;2.50;;;;;12.38;76.07;100159.47;5058521;28;45352;-86
2022/11/15 10:04:22;;;;;;;;;3.00;1.75;;;;;12.40;76.42;100154.19;4993564;28;46276;-86
2022/11/15 10:07:15;;;;;;;;;1.00;1.00;;;;;12.38;76.30;100146.41;4977322;28;50698;-86
2022/11/15 10:10:12;;;;;;;;;2.00;2.00;;;;;12.34;76.15;100142.25;4993945;28;45421;-86
2022/11/15 10:12:46;;;;;;;;;1.00;0.00;;;;;12.32;76.97;100130.22;4897314;29;45500;-87
2022/11/15 10:15:15;;;;;;;;;2.00;2.00;;;;;12.27;76.82;100124.34;4897086;29;46632;-85
2022/11/15 10:17:43;;;;;;;;;1.00;1.00;;;;;12.26;77.44;100120.91;4897098;29;45667;-86
2022/11/15 10:20:24;;;;;;;;;4.25;3.00;;;;;12.25;76.98;100121.81;4896863;29;45777;-86
2022/11/15 10:22:54;;;;;;;;;2.75;2.75;;;;;12.26;77.63;100113.06;4881260;29;45555;-86
2022/11/15 10:25:27;;;;;;;;;2.00;1.75;;;;;12.27;77.50;100091.25;4897093;29;46224;-86
2022/11/15 10:28:03;;;;;;;;;3.25;1.00;;;;;12.30;77.47;100096.34;4881365;29;45551;-86
2022/11/15 10:30:49;;;;;;;;;3.00;3.00;;;;;12.31;77.72;100098.06;4897265;28;45713;-86
2022/11/15 10:33:34;;;;;;;;;3.25;2.50;;;;;12.31;77.65;100100.66;4905948;28;45404;-85
2022/11/15 10:36:08;;;;;;;;;3.75;2.00;;;;;12.32;77.99;100099.72;4896599;29;46731;-85
2022/11/15 10:38:50;;;;;;;;;2.00;2.00;;;;;12.37;77.67;100086.50;4877570;29;45473;-86
2022/11/15 10:41:21;;;;;;;;;2.00;1.25;;;;;12.37;77.57;100082.09;4924348;28;45436;-85
2022/11/15 10:44:24;;;;;;;;;2.00;2.00;;;;;12.38;77.50;100072.50;4957906;28;45393;-83
2022/11/15 10:46:55;;;;;;;;;1.75;1.75;;;;;12.39;77.62;100059.38;4973772;28;48177;-84
2022/11/15 10:49:28;;;;;;;;;3.00;1.75;;;;;12.40;78.05;100057.63;5011201;27;45554;-85
2022/11/15 10:51:59;;;;;;;;;2.50;2.50;;;;;12.41;78.34;100051.50;5063406;28;45477;-84
2022/11/15 10:54:28;;;;;;;;;2.75;2.00;;;;;12.39;78.24;100055.94;5077675;27;45445;-85
2022/11/15 10:56:59;;;;;;;;;3.00;2.00;;;;;12.37;78.17;100050.78;5077849;27;46381;-84
2022/11/15 10:59:33;;;;;;;;;6.25;4.00;;;;;12.37;78.35;100032.53;5044051;28;45420;-84
2022/11/15 11:01:59;;;;;;;;;3.00;2.00;;;;;12.39;78.30;100030.69;5077766;27;45470;-83
2022/11/15 11:04:24;;;;;;;;;3.25;2.00;;;;;12.37;78.36;100031.69;5078115;28;58263;-84
2022/11/15 11:06:54;;;;;;;;;8.50;5.25;;;;;12.37;78.32;100018.63;5078084;28;67500;-84
2022/11/15 11:09:42;;;;;;;;;2.25;2.00;;;;;12.38;78.81;100018.53;5078905;28;45334;-83
2022/11/15 11:12:11;;;;;;;;;2.75;1.75;;;;;12.39;79.27;100017.63;5079042;28;45402;-84
2022/11/15 11:14:38;;;;;;;;;3.50;2.50;;;;;12.43;78.93;100009.66;5077644;27;45520;-84
2022/11/15 11:17:04;;;;;;;;;3.25;2.50;;;;;12.42;79.19;100011.41;5078407;28;47063;-83
2022/11/15 11:19:46;;;;;;;;;4.00;3.00;;;;;12.40;79.16;100013.25;5070153;28;45312;-83
2022/11/15 11:22:18;;;;;;;;;3.00;2.00;;;;;12.40;78.70;100011.47;5077612;28;45352;-83
2022/11/15 11:25:05;;;;;;;;;6.00;2.50;;;;;12.39;79.01;100012.41;5079932;27;45288;-83
2022/11/15 11:27:42;;;;;;;;;5.00;3.00;;;;;12.39;79.67;100004.56;5058531;28;46525;-83
2022/11/15 11:30:16;;;;;;;;;4.25;2.00;;;;;12.43;80.05;99996.59;5040170;28;45366;-83
2022/11/15 11:33:07;;;;;;;;;4.00;3.00;;;;;12.46;80.24;99994.69;5058114;28;45396;-83
2022/11/15 11:35:45;;;;;;;;;4.00;3.00;;;;;12.49;79.78;99998.91;5040548;28;45383;-83
2022/11/15 11:38:19;;;;;;;;;4.00;4.00;;;;;12.46;80.08;99997.31;5045786;28;45589;-82
2022/11/15 11:41:00;;;;;;;;;1.00;1.00;;;;;12.44;80.04;99998.28;5078176;28;45659;-85
2022/11/15 11:43:40;;;;;;;;;1.00;1.00;;;;;12.43;80.46;99994.84;5078797;27;45305;-84
2022/11/15 11:46:42;;;;;;;;;3.00;3.00;;;;;12.45;80.28;99989.56;5056553;28;45323;-85